Weather reports worldwide

Advertisment
Retie, Belgium (6464): temperature & dewpoint: 17.10.2020 23:00:00 - 23.10.2020 23:00:00 (CEST)Retie, Belgium (6464): wind speed & gusts: 17.10.2020 23:00:00 - 23.10.2020 23:00:00 (CEST)Retie, Belgium (6464): wind direction: 17.10.2020 23:00:00 - 23.10.2020 23:00:00 (CEST)Retie, Belgium (6464): reduced air pressure: 17.10.2020 23:00:00 - 23.10.2020 23:00:00 (CEST)Retie, Belgium (6464): sunshine duration: 17.10.2020 23:00:00 - 23.10.2020 23:00:00 (CEST)Retie, Belgium (6464): precipitation: 17.10.2020 23:00:00 - 23.10.2020 23:00:00 (CEST)
Date & Time tt [°C] td [°C] ff [km/h] ff [kn] fx [km/h] fx [kn] dd ppp [hPa] sd [min] rr [mm]
23.10.2020 23:00:00 13,7 11,5 7 4 16 9 SW 1012,2 0 0,1
23.10.2020 22:00:00 13,8 11,6 5 3 10 6 SW 1011,5 0 0,0
23.10.2020 21:00:00 13,6 11,1 5 3 10 5 SSW 1011,3 0 0,0
23.10.2020 20:00:00 14,7 11,7 4 2 12 6 SSW 1011,0 0 0,0
23.10.2020 19:00:00 14,7 11,7 5 3 14 7 SSW 1010,6 0 0,0
23.10.2020 18:00:00 16,4 12,5 6 3 19 10 SW 1010,5 46 0,0
23.10.2020 17:00:00 17,4 13,2 10 5 18 10 SW 1010,3 46 0,0
23.10.2020 16:00:00 17,3 14,5 9 5 15 8 SSW 1009,9 33 0,0
23.10.2020 15:00:00 16,3 14,1 9 5 16 9 WSW 1010,4 20 0,0
23.10.2020 14:00:00 15,7 14,4 7 4 16 9 W 1010,7 14 0,0
23.10.2020 13:00:00 14,5 14,3 8 4 13 7 SW 1011,1 5 0,0
23.10.2020 12:00:00 13,8 13,8 4 2 7 4 SSW 1011,4 5 0,0
23.10.2020 11:00:00 12,6 12,6 0 0 4 2 N 1011,3 0 0,0
23.10.2020 10:00:00 10,3 10,3 0 0 5 3 N 1011,4 0 0,0
23.10.2020 09:00:00 9,1 9,1 4 2 4 2 E 1011,2 0 0,0
23.10.2020 08:00:00 8,9 8,9 0 0 1 0 N 1010,9 0 0,0
23.10.2020 07:00:00 8,7 8,7 0 0 3 1 N 1011,4 0 0,0
23.10.2020 06:00:00 8,7 8,7 4 2 5 3 E 1011,5 0 0,0
23.10.2020 05:00:00 8,9 8,9 0 0 3 2 N 1012,1 0 0,0
23.10.2020 04:00:00 9,0 8,9 0 0 3 2 N 1012,6 0 0,0
23.10.2020 03:00:00 9,0 9,0 4 2 3 2 SE 1013,0 0 0,0
23.10.2020 02:00:00 9,8 9,6 0 0 6 3 N 1013,2 0 0,0
23.10.2020 01:00:00 9,5 9,5 4 2 5 3 S 1013,1 0 0,0
23.10.2020 00:00:00 11,3 11,3 4 2 6 3 S 1013,1 0 0,0
22.10.2020 23:00:00 12,2 12,2 4 2 8 5 SW 1012,9 0 0,0
22.10.2020 22:00:00 12,4 12,4 4 2 5 3 W 1012,7 0 0,0
22.10.2020 21:00:00 11,9 11,9 0 0 5 3 N 1012,5 0 0,0
22.10.2020 20:00:00 13,1 12,8 0 0 5 3 N 1012,3 0 0,0
22.10.2020 19:00:00 14,1 13,2 4 2 14 8 SSW 1011,7 0 0,0
22.10.2020 18:00:00 16,1 14,4 6 3 22 12 WSW 1011,3 32 0,0
22.10.2020 17:00:00 16,0 14,8 7 4 12 7 SW 1011,3 1 1,3
22.10.2020 16:00:00 15,7 14,8 6 3 14 8 WSW 1011,3 0 0,2
22.10.2020 15:00:00 15,4 14,7 8 4 21 11 SW 1011,8 0 0,2
22.10.2020 14:00:00 15,0 14,3 11 6 26 14 SW 1012,0 0 0,7
22.10.2020 13:00:00 16,8 13,8 14 7 27 15 SSW 1012,1 11 0,0
22.10.2020 12:00:00 16,5 13,5 10 5 22 12 SW 1012,3 34 0,0
22.10.2020 11:00:00 15,4 13,3 10 5 19 10 SSW 1012,3 58 0,0
22.10.2020 10:00:00 14,5 12,5 5 3 11 6 SSW 1012,1 33 0,0
22.10.2020 09:00:00 13,7 11,8 7 4 15 8 SSW 1011,1 0 0,0
22.10.2020 08:00:00 13,5 11,7 7 4 15 8 SSW 1010,5 0 0,0
22.10.2020 07:00:00 14,1 12,0 8 4 16 8 SSW 1010,0 0 0,0
22.10.2020 06:00:00 14,3 12,1 9 5 20 11 SSW 1009,8 0 0,0
22.10.2020 05:00:00 14,1 12,2 10 5 18 10 SSW 1010,2 0 0,0
22.10.2020 04:00:00 12,6 11,0 7 4 16 9 SSE 1009,6 0 0,0
22.10.2020 03:00:00 14,7 12,5 8 4 23 12 WSW 1009,4 0 0,0
22.10.2020 02:00:00 14,7 13,3 7 4 14 8 SSW 1008,8 0 0,0
22.10.2020 01:00:00 15,4 13,8 9 5 21 12 SSW 1008,3 0 0,0
22.10.2020 00:00:00 15,3 13,5 8 5 36 19 SW 1007,7 0 0,0
21.10.2020 23:00:00 15,8 14,0 18 10 50 27 SW 1007,1 0 0,0
21.10.2020 22:00:00 18,5 12,4 22 12 46 25 SW 1005,6 0 0,0
21.10.2020 21:00:00 18,8 12,1 22 12 49 26 SW 1004,4 0 0,0
21.10.2020 20:00:00 19,2 12,4 22 12 55 30 SW 1003,3 0 0,0
21.10.2020 19:00:00 19,8 13,0 23 13 48 26 SSW 1002,1 0 0,0
21.10.2020 18:00:00 20,1 13,2 24 13 57 31 SSW 1001,0 10 0,0
21.10.2020 17:00:00 20,5 12,9 27 14 62 34 SSW 1000,2 9 0,0
21.10.2020 16:00:00 20,5 12,9 27 15 52 28 SSW 999,5 5 0,0
21.10.2020 15:00:00 20,4 12,4 27 15 64 35 SSW 999,2 24 0,0
21.10.2020 14:00:00 20,1 12,3 25 14 48 26 S 999,3 60 0,0
21.10.2020 13:00:00 17,3 11,7 21 12 39 21 S 1000,2 9 0,0
21.10.2020 12:00:00 14,5 11,8 19 10 31 17 SSE 1000,9 0 0,0
21.10.2020 11:00:00 13,0 11,9 14 8 25 14 SSE 1002,1 0 0,9
21.10.2020 10:00:00 12,8 11,9 14 8 21 12 SSE 1003,1 0 0,7
21.10.2020 09:00:00 12,4 11,8 12 6 20 11 SE 1003,0 0 0,6
21.10.2020 08:00:00 12,3 11,8 7 4 18 10 SSE 1003,3 0 1,1
21.10.2020 07:00:00 12,5 11,9 11 6 18 10 SSE 1003,7 0 0,3
21.10.2020 06:00:00 13,0 12,1 11 6 19 11 SSE 1004,0 0 0,5
21.10.2020 05:00:00 13,3 12,5 12 7 21 11 SSE 1004,6 0 0,5
21.10.2020 04:00:00 13,7 12,5 11 6 19 10 SSE 1005,4 0 0,0
21.10.2020 03:00:00 13,9 12,5 11 6 19 11 SSE 1005,9 0 0,0
21.10.2020 02:00:00 13,8 12,7 14 8 21 12 SSE 1006,3 0 0,0
21.10.2020 01:00:00 13,5 12,7 13 7 18 10 SSE 1006,9 0 0,0
21.10.2020 00:00:00 13,8 12,8 12 7 24 13 S 1007,6 0 0,0
20.10.2020 23:00:00 13,9 12,9 14 8 24 13 S 1008,0 0 0,0
20.10.2020 22:00:00 14,1 13,0 11 6 22 12 S 1008,1 0 0,3
20.10.2020 21:00:00 14,5 13,1 11 6 24 13 S 1008,2 0 0,0
20.10.2020 20:00:00 14,4 13,1 11 6 19 10 S 1008,3 0 0,0
20.10.2020 19:00:00 14,2 12,9 5 3 15 8 S 1008,4 0 0,1
20.10.2020 18:00:00 14,8 12,5 10 5 24 13 S 1008,6 0 0,3
20.10.2020 17:00:00 15,8 11,4 12 6 27 15 S 1008,5 0 0,0
20.10.2020 16:00:00 15,7 11,0 11 6 27 14 S 1008,9 0 0,0
20.10.2020 15:00:00 15,7 11,3 13 7 26 14 SSW 1008,7 0 0,0
20.10.2020 14:00:00 15,0 11,2 16 9 27 15 S 1008,5 0 0,0
20.10.2020 13:00:00 13,3 10,5 13 7 21 12 S 1009,0 0 0,0
20.10.2020 12:00:00 12,8 9,7 11 6 21 11 S 1009,1 0 0,0
20.10.2020 11:00:00 12,2 9,0 12 6 21 11 S 1009,1 0 0,0
20.10.2020 10:00:00 11,7 8,1 13 7 22 12 S 1008,7 0 0,0
20.10.2020 09:00:00 10,5 7,4 11 6 22 12 S 1008,8 0 0,0
20.10.2020 08:00:00 10,1 6,9 14 8 18 10 S 1008,5 0 0,0
20.10.2020 07:00:00 8,2 5,9 8 4 13 7 SE 1009,3 0 0,0
20.10.2020 06:00:00 7,8 5,7 9 5 14 7 SE 1009,3 0 0,0
20.10.2020 05:00:00 7,2 5,3 11 6 16 8 ESE 1009,9 0 0,0
20.10.2020 04:00:00 7,1 5,0 6 4 14 8 ESE 1011,3 0 0,0
20.10.2020 03:00:00 6,6 4,8 8 5 13 7 ESE 1012,0 0 0,0
20.10.2020 02:00:00 7,9 5,2 7 4 16 9 ESE 1013,1 0 0,0
20.10.2020 01:00:00 7,5 5,1 8 4 14 8 ESE 1014,0 0 0,0
20.10.2020 00:00:00 7,1 5,0 7 4 13 7 ESE 1014,9 0 0,0
19.10.2020 23:00:00 8,6 5,7 9 5 15 8 SE 1015,5 0 0,0
19.10.2020 22:00:00 9,0 6,4 10 6 16 8 ESE 1016,6 0 0,0
19.10.2020 21:00:00 8,1 6,3 9 5 11 6 ESE 1017,6 0 0,0
19.10.2020 20:00:00 7,8 5,9 7 4 9 5 ESE 1017,9 0 0,0
19.10.2020 19:00:00 8,8 6,1 6 3 10 5 ESE 1018,0 0 0,0
19.10.2020 18:00:00 12,7 6,9 8 5 13 7 SE 1018,4 19 0,0
19.10.2020 17:00:00 13,8 6,4 10 5 17 9 SSE 1019,2 38 0,0
19.10.2020 16:00:00 13,8 7,6 6 3 17 9 SE 1019,8 57 0,0
19.10.2020 15:00:00 13,5 6,9 11 6 19 11 S 1020,8 52 0,0
19.10.2020 14:00:00 13,2 7,3 7 4 15 8 S 1021,2 39 0,0
19.10.2020 13:00:00 12,3 8,6 9 5 14 7 SSE 1021,9 51 0,0
19.10.2020 12:00:00 9,9 8,7 8 4 11 6 SSE 1022,5 0 0,0
19.10.2020 11:00:00 8,5 8,2 4 2 6 4 SSE 1023,1 0 0,0
19.10.2020 10:00:00 7,7 7,6 4 2 6 4 ESE 1022,8 0 0,0
19.10.2020 09:00:00 7,1 7,0 4 2 5 3 SE 1022,8 0 0,0
19.10.2020 08:00:00 6,6 6,4 0 0 5 3 N 1022,4 0 0,0
19.10.2020 07:00:00 6,4 6,4 4 2 8 5 SSE 1022,6 0 0,0
19.10.2020 06:00:00 6,8 6,7 0 0 5 3 N 1022,7 0 0,0
19.10.2020 05:00:00 7,2 7,2 0 0 5 3 N 1023,2 0 0,0
19.10.2020 04:00:00 7,8 7,6 4 2 8 5 SSW 1023,5 0 0,0
19.10.2020 03:00:00 8,0 7,7 4 2 5 3 SSW 1023,4 0 0,0
19.10.2020 02:00:00 9,1 8,5 4 2 6 4 SSW 1023,5 0 0,0
19.10.2020 01:00:00 8,9 8,5 4 2 5 3 SW 1023,6 0 0,0
19.10.2020 00:00:00 8,8 8,3 4 2 4 2 SW 1023,6 0 0,0
18.10.2020 23:00:00 8,9 8,5 0 0 4 2 N 1023,5 0 0,0
18.10.2020 22:00:00 9,2 8,6 0 0 4 2 N 1023,2 0 0,0
18.10.2020 21:00:00 10,0 9,0 0 0 4 2 N 1023,4 0 0,0
18.10.2020 20:00:00 10,4 9,0 4 2 6 3 WNW 1023,4 0 0,0
18.10.2020 19:00:00 11,0 8,8 4 2 7 4 WNW 1022,7 0 0,0
18.10.2020 18:00:00 11,4 9,5 4 2 7 4 NW 1022,6 0 0,0
18.10.2020 17:00:00 12,1 9,3 5 3 12 6 W 1022,5 0 0,0
18.10.2020 16:00:00 12,8 9,6 6 3 14 8 WSW 1022,6 4 0,0
18.10.2020 15:00:00 12,6 10,1 6 3 14 8 WSW 1022,9 0 0,0
18.10.2020 14:00:00 11,6 9,3 7 4 11 6 SW 1023,4 0 0,0
18.10.2020 13:00:00 11,1 9,2 4 2 13 7 SW 1023,8 0 0,0
18.10.2020 12:00:00 10,2 8,8 6 3 14 8 SW 1023,6 0 0,0
18.10.2020 11:00:00 9,4 8,0 4 2 10 5 SW 1023,4 0 0,0
18.10.2020 10:00:00 8,7 7,5 4 2 8 4 SSW 1023,3 0 0,0
18.10.2020 09:00:00 8,1 7,0 4 2 11 6 WNW 1022,9 0 0,0
18.10.2020 08:00:00 7,9 7,0 4 2 8 4 SSW 1022,5 0 0,0
18.10.2020 07:00:00 7,7 7,1 4 2 8 4 SSW 1022,4 0 0,0
18.10.2020 06:00:00 7,1 6,8 4 2 6 3 SW 1022,6 0 0,0
18.10.2020 05:00:00 6,7 6,7 0 0 4 2 N 1022,6 0 0,0
18.10.2020 04:00:00 6,5 6,5 0 0 3 2 N 1022,5 0 0,0
18.10.2020 03:00:00 6,9 6,7 0 0 1 1 N 1022,5 0 0,0
18.10.2020 02:00:00 6,6 6,4 0 0 3 1 N 1022,8 0 0,0
18.10.2020 01:00:00 6,3 6,0 0 0 3 1 N 1022,8 0 0,0
18.10.2020 00:00:00 6,5 5,9 4 2 3 2 ESE 1022,5 0 0,0
17.10.2020 23:00:00 8,0 6,9 0 0 5 3 N 1022,5 0 0,0

tt = temperature
td = dewpoint
ff = wind speed
fx = gusts
dd = wind direction
ppp = reduced air pressure
sd = sunshine duration
rr = precipitation

Next stations